sensor_id;sensor_type;location;lat;lon;timestamp;pressure;altitude;pressure_sealevel;temperature;humidity
47330;BME280;33060;50.178;7.570;2023-03-19T00:00:32;96671.44;;;9.88;76.48
47330;BME280;33060;50.178;7.570;2023-03-19T00:02:59;96672.06;;;9.92;76.10
47330;BME280;33060;50.178;7.570;2023-03-19T00:05:26;96670.41;;;9.91;76.68
47330;BME280;33060;50.178;7.570;2023-03-19T00:07:53;96670.03;;;9.96;75.77
47330;BME280;33060;50.178;7.570;2023-03-19T00:10:20;96673.75;;;9.93;76.40
47330;BME280;33060;50.178;7.570;2023-03-19T00:12:46;96672.69;;;9.96;75.81
47330;BME280;33060;50.178;7.570;2023-03-19T00:15:13;96674.03;;;10.01;75.25
47330;BME280;33060;50.178;7.570;2023-03-19T00:17:41;96668.41;;;10.06;75.17
47330;BME280;33060;50.178;7.570;2023-03-19T00:20:10;96673.56;;;10.07;75.53
47330;BME280;33060;50.178;7.570;2023-03-19T00:22:37;96676.19;;;10.07;75.08
47330;BME280;33060;50.178;7.570;2023-03-19T00:25:06;96673.47;;;10.09;75.65
47330;BME280;33060;50.178;7.570;2023-03-19T00:27:34;96675.16;;;10.10;75.30
47330;BME280;33060;50.178;7.570;2023-03-19T00:30:03;96681.84;;;10.14;75.40
47330;BME280;33060;50.178;7.570;2023-03-19T00:32:31;96679.34;;;10.12;75.78
47330;BME280;33060;50.178;7.570;2023-03-19T00:34:59;96677.78;;;10.10;76.67
47330;BME280;33060;50.178;7.570;2023-03-19T00:37:26;96675.25;;;10.08;76.58
47330;BME280;33060;50.178;7.570;2023-03-19T00:39:54;96672.94;;;10.04;76.80
47330;BME280;33060;50.178;7.570;2023-03-19T00:42:20;96674.75;;;10.03;76.67
47330;BME280;33060;50.178;7.570;2023-03-19T00:44:47;96684.22;;;10.06;76.38
47330;BME280;33060;50.178;7.570;2023-03-19T00:47:14;96683.94;;;9.98;77.47
47330;BME280;33060;50.178;7.570;2023-03-19T00:49:41;96687.75;;;9.94;77.31
47330;BME280;33060;50.178;7.570;2023-03-19T00:52:07;96692.19;;;9.93;77.33
47330;BME280;33060;50.178;7.570;2023-03-19T00:54:34;96693.88;;;9.94;77.39
47330;BME280;33060;50.178;7.570;2023-03-19T00:57:01;96697.06;;;9.86;77.49
47330;BME280;33060;50.178;7.570;2023-03-19T00:59:28;96696.81;;;9.89;77.26
47330;BME280;33060;50.178;7.570;2023-03-19T01:02:04;96690.72;;;9.89;78.18
47330;BME280;33060;50.178;7.570;2023-03-19T01:04:32;96697.06;;;9.86;77.99
47330;BME280;33060;50.178;7.570;2023-03-19T01:06:58;96687.47;;;9.85;77.87
47330;BME280;33060;50.178;7.570;2023-03-19T01:09:28;96690.72;;;9.89;77.04
47330;BME280;33060;50.178;7.570;2023-03-19T01:11:55;96688.94;;;9.89;77.17
47330;BME280;33060;50.178;7.570;2023-03-19T01:14:22;96689.88;;;9.88;77.53
47330;BME280;33060;50.178;7.570;2023-03-19T01:16:49;96692.88;;;9.84;77.59
47330;BME280;33060;50.178;7.570;2023-03-19T01:19:16;96694.88;;;9.80;78.07
47330;BME280;33060;50.178;7.570;2023-03-19T01:21:42;96686.69;;;9.72;78.52
47330;BME280;33060;50.178;7.570;2023-03-19T01:24:15;96688.09;;;9.65;79.21
47330;BME280;33060;50.178;7.570;2023-03-19T01:26:43;96695.25;;;9.63;79.29
47330;BME280;33060;50.178;7.570;2023-03-19T01:29:39;96695.03;;;9.66;78.72
47330;BME280;33060;50.178;7.570;2023-03-19T01:32:15;96695.53;;;9.71;78.29
47330;BME280;33060;50.178;7.570;2023-03-19T01:35:00;96692.06;;;9.71;78.58
47330;BME280;33060;50.178;7.570;2023-03-19T01:37:27;96696.38;;;9.72;78.41
47330;BME280;33060;50.178;7.570;2023-03-19T01:39:54;96689.22;;;9.74;77.99
47330;BME280;33060;50.178;7.570;2023-03-19T01:42:21;96688.16;;;9.76;79.27
47330;BME280;33060;50.178;7.570;2023-03-19T01:45:38;96688.16;;;9.76;78.97
47330;BME280;33060;50.178;7.570;2023-03-19T01:48:56;96687.44;;;9.74;80.51
47330;BME280;33060;50.178;7.570;2023-03-19T01:51:28;96685.22;;;9.68;79.87
47330;BME280;33060;50.178;7.570;2023-03-19T01:54:04;96677.03;;;9.60;80.74
47330;BME280;33060;50.178;7.570;2023-03-19T01:56:37;96680.88;;;9.56;80.54
47330;BME280;33060;50.178;7.570;2023-03-19T01:59:49;96677.47;;;9.54;80.28
47330;BME280;33060;50.178;7.570;2023-03-19T02:02:54;96683.22;;;9.48;81.13
47330;BME280;33060;50.178;7.570;2023-03-19T02:05:46;96679.53;;;9.38;81.23
47330;BME280;33060;50.178;7.570;2023-03-19T02:08:16;96675.66;;;9.30;80.86
47330;BME280;33060;50.178;7.570;2023-03-19T02:10:46;96673.47;;;9.24;81.31
47330;BME280;33060;50.178;7.570;2023-03-19T02:13:14;96675.25;;;9.11;81.33
47330;BME280;33060;50.178;7.570;2023-03-19T02:15:41;96682.47;;;8.96;81.33
47330;BME280;33060;50.178;7.570;2023-03-19T02:18:08;96686.56;;;8.75;82.45
47330;BME280;33060;50.178;7.570;2023-03-19T02:23:35;96688.09;;;8.39;84.21
47330;BME280;33060;50.178;7.570;2023-03-19T02:26:14;96698.34;;;8.17;85.37
47330;BME280;33060;50.178;7.570;2023-03-19T02:28:44;96699.97;;;7.92;85.92
47330;BME280;33060;50.178;7.570;2023-03-19T02:31:14;96698.28;;;7.64;86.57
47330;BME280;33060;50.178;7.570;2023-03-19T02:33:42;96702.25;;;7.43;86.98
47330;BME280;33060;50.178;7.570;2023-03-19T02:36:14;96707.81;;;7.39;88.22
47330;BME280;33060;50.178;7.570;2023-03-19T02:38:43;96699.94;;;7.39;88.71
47330;BME280;33060;50.178;7.570;2023-03-19T02:41:11;96699.38;;;7.33;89.67
47330;BME280;33060;50.178;7.570;2023-03-19T02:43:41;96701.16;;;7.33;89.21
47330;BME280;33060;50.178;7.570;2023-03-19T02:46:11;96703.78;;;7.33;89.59
47330;BME280;33060;50.178;7.570;2023-03-19T02:48:39;96700.09;;;7.35;90.38
47330;BME280;33060;50.178;7.570;2023-03-19T02:51:06;96703.56;;;7.36;89.36
47330;BME280;33060;50.178;7.570;2023-03-19T02:53:34;96710.69;;;7.34;89.46
47330;BME280;33060;50.178;7.570;2023-03-19T02:56:01;96706.13;;;7.23;90.11
47330;BME280;33060;50.178;7.570;2023-03-19T02:58:27;96713.81;;;7.12;90.22
47330;BME280;33060;50.178;7.570;2023-03-19T03:00:54;96708.13;;;7.05;90.64
47330;BME280;33060;50.178;7.570;2023-03-19T03:03:21;96721.50;;;7.01;90.56
47330;BME280;33060;50.178;7.570;2023-03-19T03:05:47;96722.34;;;7.01;90.82
47330;BME280;33060;50.178;7.570;2023-03-19T03:08:14;96709.13;;;7.03;91.04
47330;BME280;33060;50.178;7.570;2023-03-19T03:10:41;96713.44;;;7.18;90.87
47330;BME280;33060;50.178;7.570;2023-03-19T03:13:07;96708.66;;;7.25;91.23
47330;BME280;33060;50.178;7.570;2023-03-19T03:15:34;96711.91;;;7.28;89.81
47330;BME280;33060;50.178;7.570;2023-03-19T03:18:01;96701.53;;;7.27;90.02
47330;BME280;33060;50.178;7.570;2023-03-19T03:20:28;96711.38;;;7.23;91.23
47330;BME280;33060;50.178;7.570;2023-03-19T03:22:55;96703.19;;;7.28;90.38
47330;BME280;33060;50.178;7.570;2023-03-19T03:25:21;96702.00;;;7.33;91.09
47330;BME280;33060;50.178;7.570;2023-03-19T03:27:48;96698.53;;;7.33;90.86
47330;BME280;33060;50.178;7.570;2023-03-19T03:30:15;96695.81;;;7.34;91.05
47330;BME280;33060;50.178;7.570;2023-03-19T03:32:42;96696.28;;;7.27;89.34
47330;BME280;33060;50.178;7.570;2023-03-19T03:35:09;96700.69;;;7.26;89.44
47330;BME280;33060;50.178;7.570;2023-03-19T03:37:36;96700.78;;;7.25;89.54
47330;BME280;33060;50.178;7.570;2023-03-19T03:40:04;96701.91;;;7.21;89.05
47330;BME280;33060;50.178;7.570;2023-03-19T03:42:35;96700.63;;;7.14;88.66
47330;BME280;33060;50.178;7.570;2023-03-19T03:45:05;96709.44;;;7.13;90.42
47330;BME280;33060;50.178;7.570;2023-03-19T03:47:32;96708.97;;;7.06;90.79
47330;BME280;33060;50.178;7.570;2023-03-19T03:49:59;96706.13;;;7.09;91.79
47330;BME280;33060;50.178;7.570;2023-03-19T03:52:27;96704.53;;;7.21;92.10
47330;BME280;33060;50.178;7.570;2023-03-19T03:54:57;96702.84;;;7.34;90.39
47330;BME280;33060;50.178;7.570;2023-03-19T03:57:24;96710.81;;;7.32;90.58
47330;BME280;33060;50.178;7.570;2023-03-19T03:59:53;96707.13;;;7.35;90.12
47330;BME280;33060;50.178;7.570;2023-03-19T04:02:21;96713.31;;;7.34;90.85
47330;BME280;33060;50.178;7.570;2023-03-19T04:04:58;96714.81;;;7.38;89.90
47330;BME280;33060;50.178;7.570;2023-03-19T04:07:25;96716.78;;;7.49;89.92
47330;BME280;33060;50.178;7.570;2023-03-19T04:09:56;96716.94;;;7.46;90.16
47330;BME280;33060;50.178;7.570;2023-03-19T04:12:23;96716.78;;;7.49;91.01
47330;BME280;33060;50.178;7.570;2023-03-19T04:14:50;96718.16;;;7.54;91.20
47330;BME280;33060;50.178;7.570;2023-03-19T04:17:17;96716.00;;;7.61;90.66
47330;BME280;33060;50.178;7.570;2023-03-19T04:19:44;96719.91;;;7.68;90.51
47330;BME280;33060;50.178;7.570;2023-03-19T04:22:10;96719.53;;;7.74;89.60
47330;BME280;33060;50.178;7.570;2023-03-19T04:24:37;96712.50;;;7.75;89.75
47330;BME280;33060;50.178;7.570;2023-03-19T04:27:05;96715.75;;;7.78;89.22
47330;BME280;33060;50.178;7.570;2023-03-19T04:29:33;96712.50;;;7.75;88.52
47330;BME280;33060;50.178;7.570;2023-03-19T04:32:00;96716.59;;;7.79;88.56
47330;BME280;33060;50.178;7.570;2023-03-19T04:34:27;96711.94;;;7.70;89.59
47330;BME280;33060;50.178;7.570;2023-03-19T04:36:53;96714.56;;;7.70;89.71
47330;BME280;33060;50.178;7.570;2023-03-19T04:39:20;96715.59;;;7.67;89.88
47330;BME280;33060;50.178;7.570;2023-03-19T04:41:47;96715.50;;;7.69;89.65
47330;BME280;33060;50.178;7.570;2023-03-19T04:44:36;96714.75;;;7.67;89.57
47330;BME280;33060;50.178;7.570;2023-03-19T04:47:03;96713.81;;;7.68;89.24
47330;BME280;33060;50.178;7.570;2023-03-19T04:49:40;96725.66;;;7.60;89.26
47330;BME280;33060;50.178;7.570;2023-03-19T04:52:07;96728.91;;;7.64;89.21
47330;BME280;33060;50.178;7.570;2023-03-19T04:54:34;96735.19;;;7.61;89.52
47330;BME280;33060;50.178;7.570;2023-03-19T04:57:01;96726.22;;;7.65;89.22
47330;BME280;33060;50.178;7.570;2023-03-19T04:59:33;96730.63;;;7.65;88.95
47330;BME280;33060;50.178;7.570;2023-03-19T05:02:05;96735.94;;;7.63;89.16
47330;BME280;33060;50.178;7.570;2023-03-19T05:04:33;96734.16;;;7.64;89.27
47330;BME280;33060;50.178;7.570;2023-03-19T05:07:05;96742.34;;;7.59;89.44
47330;BME280;33060;50.178;7.570;2023-03-19T05:09:33;96741.38;;;7.60;89.87
47330;BME280;33060;50.178;7.570;2023-03-19T05:12:00;96739.50;;;7.62;90.04
47330;BME280;33060;50.178;7.570;2023-03-19T05:14:30;96741.84;;;7.67;89.84
47330;BME280;33060;50.178;7.570;2023-03-19T05:17:04;96745.94;;;7.71;90.31
47330;BME280;33060;50.178;7.570;2023-03-19T05:19:43;96753.84;;;7.71;89.26
47330;BME280;33060;50.178;7.570;2023-03-19T05:22:10;96748.56;;;7.71;89.37
47330;BME280;33060;50.178;7.570;2023-03-19T05:24:37;96760.13;;;7.69;90.18
47330;BME280;33060;50.178;7.570;2023-03-19T05:27:04;96756.56;;;7.70;89.74
47330;BME280;33060;50.178;7.570;2023-03-19T05:29:38;96759.09;;;7.71;90.10
47330;BME280;33060;50.178;7.570;2023-03-19T05:32:24;96758.34;;;7.69;90.31
47330;BME280;33060;50.178;7.570;2023-03-19T05:34:52;96758.97;;;7.73;90.25
47330;BME280;33060;50.178;7.570;2023-03-19T05:37:18;96755.13;;;7.78;90.58
47330;BME280;33060;50.178;7.570;2023-03-19T05:39:51;96748.66;;;7.84;89.57
47330;BME280;33060;50.178;7.570;2023-03-19T05:42:18;96744.78;;;7.89;89.54
47330;BME280;33060;50.178;7.570;2023-03-19T05:44:44;96741.38;;;8.02;88.74
47330;BME280;33060;50.178;7.570;2023-03-19T05:47:24;96737.50;;;8.07;88.21
47330;BME280;33060;50.178;7.570;2023-03-19T05:49:53;96741.16;;;8.05;88.48
47330;BME280;33060;50.178;7.570;2023-03-19T05:52:20;96744.44;;;8.08;88.31
47330;BME280;33060;50.178;7.570;2023-03-19T05:54:48;96754.25;;;8.19;87.45
47330;BME280;33060;50.178;7.570;2023-03-19T05:57:31;96757.41;;;8.24;87.23
47330;BME280;33060;50.178;7.570;2023-03-19T06:00:17;96761.44;;;8.30;87.21
47330;BME280;33060;50.178;7.570;2023-03-19T06:02:54;96761.22;;;8.33;87.27
47330;BME280;33060;50.178;7.570;2023-03-19T06:05:40;96758.44;;;8.36;86.97
47330;BME280;33060;50.178;7.570;2023-03-19T06:08:19;96761.41;;;8.44;87.00
47330;BME280;33060;50.178;7.570;2023-03-19T06:11:04;96756.59;;;8.63;86.46
47330;BME280;33060;50.178;7.570;2023-03-19T06:13:32;96764.19;;;8.81;85.51
47330;BME280;33060;50.178;7.570;2023-03-19T06:16:05;96758.19;;;8.91;85.02
47330;BME280;33060;50.178;7.570;2023-03-19T06:18:35;96769.03;;;8.99;84.70
47330;BME280;33060;50.178;7.570;2023-03-19T06:21:08;96771.03;;;9.09;84.37
47330;BME280;33060;50.178;7.570;2023-03-19T06:23:35;96777.56;;;9.16;83.72
47330;BME280;33060;50.178;7.570;2023-03-19T06:26:04;96780.22;;;9.16;84.39
47330;BME280;33060;50.178;7.570;2023-03-19T06:28:39;96782.94;;;9.14;84.19
47330;BME280;33060;50.178;7.570;2023-03-19T06:31:06;96776.63;;;9.17;84.74
47330;BME280;33060;50.178;7.570;2023-03-19T06:33:56;96783.88;;;9.26;84.35
47330;BME280;33060;50.178;7.570;2023-03-19T06:36:28;96783.00;;;9.38;83.87
47330;BME280;33060;50.178;7.570;2023-03-19T06:38:55;96777.75;;;9.51;83.51
47330;BME280;33060;50.178;7.570;2023-03-19T06:41:22;96779.22;;;9.55;83.11
47330;BME280;33060;50.178;7.570;2023-03-19T06:43:50;96777.34;;;9.57;83.56
47330;BME280;33060;50.178;7.570;2023-03-19T06:46:17;96784.38;;;9.56;83.25
47330;BME280;33060;50.178;7.570;2023-03-19T06:48:44;96788.06;;;9.54;83.39
47330;BME280;33060;50.178;7.570;2023-03-19T06:51:11;96787.56;;;9.49;84.01
47330;BME280;33060;50.178;7.570;2023-03-19T06:53:37;96793.66;;;9.49;84.07
47330;BME280;33060;50.178;7.570;2023-03-19T06:56:05;96793.56;;;9.51;84.30
47330;BME280;33060;50.178;7.570;2023-03-19T06:58:31;96784.47;;;9.55;84.04
47330;BME280;33060;50.178;7.570;2023-03-19T07:00:58;96791.66;;;9.53;84.77
47330;BME280;33060;50.178;7.570;2023-03-19T07:03:25;96791.94;;;9.61;84.35
47330;BME280;33060;50.178;7.570;2023-03-19T07:05:51;96792.78;;;9.61;84.43
47330;BME280;33060;50.178;7.570;2023-03-19T07:08:19;96794.94;;;9.56;85.09
47330;BME280;33060;50.178;7.570;2023-03-19T07:10:45;96792.19;;;9.58;84.47
47330;BME280;33060;50.178;7.570;2023-03-19T07:13:12;96793.75;;;9.60;84.63
47330;BME280;33060;50.178;7.570;2023-03-19T07:15:39;96791.34;;;9.57;84.91
47330;BME280;33060;50.178;7.570;2023-03-19T07:18:05;96787.94;;;9.55;84.90
47330;BME280;33060;50.178;7.570;2023-03-19T07:20:32;96804.50;;;9.57;85.68
47330;BME280;33060;50.178;7.570;2023-03-19T07:22:59;96807.44;;;9.53;86.21
47330;BME280;33060;50.178;7.570;2023-03-19T07:25:26;96807.97;;;9.45;87.54
47330;BME280;33060;50.178;7.570;2023-03-19T07:27:52;96802.81;;;9.44;87.84
47330;BME280;33060;50.178;7.570;2023-03-19T07:30:21;96800.41;;;9.41;89.67
47330;BME280;33060;50.178;7.570;2023-03-19T07:32:48;96812.09;;;9.37;90.42
47330;BME280;33060;50.178;7.570;2023-03-19T07:35:15;96813.75;;;9.38;89.50
47330;BME280;33060;50.178;7.570;2023-03-19T07:37:41;96810.94;;;9.41;90.14
47330;BME280;33060;50.178;7.570;2023-03-19T07:40:09;96808.09;;;9.44;89.92
47330;BME280;33060;50.178;7.570;2023-03-19T07:42:36;96807.97;;;9.45;90.16
47330;BME280;33060;50.178;7.570;2023-03-19T07:45:04;96812.94;;;9.50;90.63
47330;BME280;33060;50.178;7.570;2023-03-19T07:47:31;96808.94;;;9.57;90.58
47330;BME280;33060;50.178;7.570;2023-03-19T07:49:58;96804.81;;;9.66;90.44
47330;BME280;33060;50.178;7.570;2023-03-19T07:52:25;96812.16;;;9.73;89.87
47330;BME280;33060;50.178;7.570;2023-03-19T07:54:52;96811.53;;;9.82;89.35
47330;BME280;33060;50.178;7.570;2023-03-19T07:57:18;96811.41;;;9.84;90.66
47330;BME280;33060;50.178;7.570;2023-03-19T07:59:46;96817.59;;;9.96;89.39
47330;BME280;33060;50.178;7.570;2023-03-19T08:02:13;96830.09;;;10.05;89.15
47330;BME280;33060;50.178;7.570;2023-03-19T08:04:40;96819.34;;;10.08;89.64
47330;BME280;33060;50.178;7.570;2023-03-19T08:07:07;96820.97;;;10.22;88.73
47330;BME280;33060;50.178;7.570;2023-03-19T08:09:36;96820.75;;;10.37;87.50
47330;BME280;33060;50.178;7.570;2023-03-19T08:12:03;96825.56;;;10.67;86.58
47330;BME280;33060;50.178;7.570;2023-03-19T08:14:29;96826.75;;;10.98;85.28
47330;BME280;33060;50.178;7.570;2023-03-19T08:16:56;96826.84;;;11.43;83.58
47330;BME280;33060;50.178;7.570;2023-03-19T08:19:23;96824.34;;;11.64;82.31
47330;BME280;33060;50.178;7.570;2023-03-19T08:21:50;96819.91;;;11.87;80.50
47330;BME280;33060;50.178;7.570;2023-03-19T08:24:16;96825.41;;;12.06;81.69
47330;BME280;33060;50.178;7.570;2023-03-19T08:26:44;96825.25;;;12.30;79.86
47330;BME280;33060;50.178;7.570;2023-03-19T08:29:11;96822.81;;;12.50;78.48
47330;BME280;33060;50.178;7.570;2023-03-19T08:31:37;96822.09;;;12.48;78.59
47330;BME280;33060;50.178;7.570;2023-03-19T08:34:04;96822.09;;;12.48;78.47
47330;BME280;33060;50.178;7.570;2023-03-19T08:36:31;96818.00;;;12.55;78.93
47330;BME280;33060;50.178;7.570;2023-03-19T08:38:58;96820.31;;;12.37;78.65
47330;BME280;33060;50.178;7.570;2023-03-19T08:41:24;96817.03;;;12.56;78.21
47330;BME280;33060;50.178;7.570;2023-03-19T08:43:52;96821.13;;;12.49;78.18
47330;BME280;33060;50.178;7.570;2023-03-19T08:46:18;96820.06;;;12.51;77.58
47330;BME280;33060;50.178;7.570;2023-03-19T08:48:45;96812.34;;;12.48;77.24
47330;BME280;33060;50.178;7.570;2023-03-19T08:51:13;96825.34;;;12.51;76.89
47330;BME280;33060;50.178;7.570;2023-03-19T08:53:40;96819.75;;;12.65;77.15
47330;BME280;33060;50.178;7.570;2023-03-19T08:56:07;96831.59;;;12.82;76.69
47330;BME280;33060;50.178;7.570;2023-03-19T08:58:33;96828.03;;;13.04;76.22
47330;BME280;33060;50.178;7.570;2023-03-19T09:01:06;96828.66;;;13.17;74.84
47330;BME280;33060;50.178;7.570;2023-03-19T09:03:34;96822.19;;;13.21;74.44
47330;BME280;33060;50.178;7.570;2023-03-19T09:06:03;96825.78;;;13.41;74.30
47330;BME280;33060;50.178;7.570;2023-03-19T09:08:30;96835.72;;;13.28;73.07
47330;BME280;33060;50.178;7.570;2023-03-19T09:10:57;96845.19;;;13.21;74.22
47330;BME280;33060;50.178;7.570;2023-03-19T09:13:24;96846.72;;;13.23;73.92
47330;BME280;33060;50.178;7.570;2023-03-19T09:15:51;96848.88;;;13.29;74.26
47330;BME280;33060;50.178;7.570;2023-03-19T09:18:18;96847.09;;;13.40;73.96
47330;BME280;33060;50.178;7.570;2023-03-19T09:20:52;96850.38;;;13.53;73.64
47330;BME280;33060;50.178;7.570;2023-03-19T09:23:20;96854.38;;;13.68;73.08
47330;BME280;33060;50.178;7.570;2023-03-19T09:25:47;96854.75;;;13.64;73.24
47330;BME280;33060;50.178;7.570;2023-03-19T09:28:14;96858.34;;;13.53;74.19
47330;BME280;33060;50.178;7.570;2023-03-19T09:30:41;96855.78;;;13.21;74.89
47330;BME280;33060;50.178;7.570;2023-03-19T09:33:08;96858.25;;;12.69;76.61
47330;BME280;33060;50.178;7.570;2023-03-19T09:35:35;96862.03;;;12.44;77.64
47330;BME280;33060;50.178;7.570;2023-03-19T09:38:05;96869.78;;;12.25;78.61
47330;BME280;33060;50.178;7.570;2023-03-19T09:40:42;96863.75;;;12.23;79.96
47330;BME280;33060;50.178;7.570;2023-03-19T09:46:01;96864.44;;;12.36;79.97
47330;BME280;33060;50.178;7.570;2023-03-19T09:48:34;96867.72;;;12.29;80.46
47330;BME280;33060;50.178;7.570;2023-03-19T09:51:04;96876.13;;;12.11;80.26
47330;BME280;33060;50.178;7.570;2023-03-19T09:56:01;96868.22;;;12.00;82.12
47330;BME280;33060;50.178;7.570;2023-03-19T09:58:33;96864.47;;;12.14;81.35
47330;BME280;33060;50.178;7.570;2023-03-19T10:01:00;96871.56;;;12.13;79.79
47330;BME280;33060;50.178;7.570;2023-03-19T10:09:10;96868.41;;;12.42;80.38
47330;BME280;33060;50.178;7.570;2023-03-19T10:14:41;96862.56;;;12.70;78.69
47330;BME280;33060;50.178;7.570;2023-03-19T10:17:16;96861.41;;;12.95;77.84
47330;BME280;33060;50.178;7.570;2023-03-19T10:19:50;96864.34;;;13.02;78.07
47330;BME280;33060;50.178;7.570;2023-03-19T10:22:24;96860.09;;;13.11;78.22
47330;BME280;33060;50.178;7.570;2023-03-19T10:24:55;96865.59;;;12.98;77.73
47330;BME280;33060;50.178;7.570;2023-03-19T10:27:25;96873.53;;;12.98;77.45
47330;BME280;33060;50.178;7.570;2023-03-19T10:29:54;96867.34;;;12.77;74.60
47330;BME280;33060;50.178;7.570;2023-03-19T10:32:35;96868.22;;;12.66;78.02
47330;BME280;33060;50.178;7.570;2023-03-19T10:35:10;96866.59;;;12.54;77.01
47330;BME280;33060;50.178;7.570;2023-03-19T10:37:42;96873.69;;;12.53;77.22
47330;BME280;33060;50.178;7.570;2023-03-19T10:40:21;96872.50;;;12.46;77.38
47330;BME280;33060;50.178;7.570;2023-03-19T10:45:30;96884.66;;;11.81;78.73
47330;BME280;33060;50.178;7.570;2023-03-19T10:48:01;96889.78;;;11.49;80.69
47330;BME280;33060;50.178;7.570;2023-03-19T10:53:03;96906.19;;;11.07;84.45
47330;BME280;33060;50.178;7.570;2023-03-19T10:55:31;96916.72;;;10.95;84.48
47330;BME280;33060;50.178;7.570;2023-03-19T10:58:15;96919.97;;;10.75;90.02
47330;BME280;33060;50.178;7.570;2023-03-19T11:00:46;96923.78;;;10.71;88.03
47330;BME280;33060;50.178;7.570;2023-03-19T11:06:18;96920.16;;;10.48;90.95
47330;BME280;33060;50.178;7.570;2023-03-19T11:14:34;96931.19;;;10.04;95.76
47330;BME280;33060;50.178;7.570;2023-03-19T11:19:39;96922.88;;;10.10;95.53
47330;BME280;33060;50.178;7.570;2023-03-19T11:24:39;96918.41;;;10.36;94.58
47330;BME280;33060;50.178;7.570;2023-03-19T11:27:08;96914.03;;;10.47;93.95
47330;BME280;33060;50.178;7.570;2023-03-19T11:29:40;96913.66;;;10.65;92.01
47330;BME280;33060;50.178;7.570;2023-03-19T11:32:33;96918.03;;;10.77;90.09
47330;BME280;33060;50.178;7.570;2023-03-19T11:35:10;96915.81;;;11.08;91.99
47330;BME280;33060;50.178;7.570;2023-03-19T11:37:48;96915.69;;;11.44;89.04
47330;BME280;33060;50.178;7.570;2023-03-19T11:40:36;96913.34;;;11.75;88.61
47330;BME280;33060;50.178;7.570;2023-03-19T11:54:22;96906.75;;;10.99;94.87
47330;BME280;33060;50.178;7.570;2023-03-19T12:04:56;96891.69;;;11.58;90.67
47330;BME280;33060;50.178;7.570;2023-03-19T12:10:30;96892.88;;;11.43;92.00
47330;BME280;33060;50.178;7.570;2023-03-19T12:13:09;96903.16;;;11.35;90.45
47330;BME280;33060;50.178;7.570;2023-03-19T12:21:53;96896.28;;;10.86;93.69
47330;BME280;33060;50.178;7.570;2023-03-19T12:27:30;96889.50;;;10.71;97.04
47330;BME280;33060;50.178;7.570;2023-03-19T12:30:10;96895.66;;;10.83;96.37
47330;BME280;33060;50.178;7.570;2023-03-19T12:35:36;96893.31;;;11.26;95.49
47330;BME280;33060;50.178;7.570;2023-03-19T12:38:17;96895.63;;;11.42;95.21
47330;BME280;33060;50.178;7.570;2023-03-19T12:41:04;96890.75;;;11.59;92.91
47330;BME280;33060;50.178;7.570;2023-03-19T12:48:41;96893.06;;;11.98;88.21
47330;BME280;33060;50.178;7.570;2023-03-19T12:51:12;96888.63;;;11.87;89.59
47330;BME280;33060;50.178;7.570;2023-03-19T12:53:49;96898.13;;;11.89;90.86
47330;BME280;33060;50.178;7.570;2023-03-19T12:56:45;96895.38;;;12.02;89.90
47330;BME280;33060;50.178;7.570;2023-03-19T12:59:15;96885.88;;;12.11;88.88
47330;BME280;33060;50.178;7.570;2023-03-19T13:01:52;96881.28;;;12.24;86.97
47330;BME280;33060;50.178;7.570;2023-03-19T13:04:26;96886.09;;;12.30;85.84
47330;BME280;33060;50.178;7.570;2023-03-19T13:06:57;96873.91;;;12.50;84.84
47330;BME280;33060;50.178;7.570;2023-03-19T13:09:35;96880.78;;;12.41;87.08
47330;BME280;33060;50.178;7.570;2023-03-19T13:12:25;96877.50;;;12.60;87.20
47330;BME280;33060;50.178;7.570;2023-03-19T13:17:57;96872.06;;;12.73;83.35
47330;BME280;33060;50.178;7.570;2023-03-19T13:23:24;96871.38;;;12.92;84.38
47330;BME280;33060;50.178;7.570;2023-03-19T13:25:54;96883.69;;;12.82;83.71
47330;BME280;33060;50.178;7.570;2023-03-19T13:31:16;96877.06;;;13.82;83.47
47330;BME280;33060;50.178;7.570;2023-03-19T13:34:05;96876.34;;;13.80;80.09
47330;BME280;33060;50.178;7.570;2023-03-19T13:36:39;96869.84;;;12.89;82.37
47330;BME280;33060;50.178;7.570;2023-03-19T13:39:32;96871.53;;;12.25;85.63
47330;BME280;33060;50.178;7.570;2023-03-19T13:42:22;96876.44;;;11.62;89.27
47330;BME280;33060;50.178;7.570;2023-03-19T13:44:53;96874.00;;;11.37;88.58
47330;BME280;33060;50.178;7.570;2023-03-19T13:52:47;96866.63;;;11.18;92.44
47330;BME280;33060;50.178;7.570;2023-03-19T13:57:57;96868.81;;;11.24;91.52
47330;BME280;33060;50.178;7.570;2023-03-19T14:05:46;96867.75;;;11.84;88.93
47330;BME280;33060;50.178;7.570;2023-03-19T14:08:20;96855.16;;;12.42;85.99
47330;BME280;33060;50.178;7.570;2023-03-19T14:10:51;96852.22;;;12.99;84.68
47330;BME280;33060;50.178;7.570;2023-03-19T14:15:50;96846.09;;;14.23;76.83
47330;BME280;33060;50.178;7.570;2023-03-19T14:18:21;96847.28;;;14.49;74.37
47330;BME280;33060;50.178;7.570;2023-03-19T14:21:00;96841.06;;;14.89;73.41
47330;BME280;33060;50.178;7.570;2023-03-19T14:23:31;96840.38;;;14.96;72.41
47330;BME280;33060;50.178;7.570;2023-03-19T14:26:24;96829.72;;;14.67;74.02
47330;BME280;33060;50.178;7.570;2023-03-19T14:29:01;96830.56;;;14.68;72.91
47330;BME280;33060;50.178;7.570;2023-03-19T14:31:39;96839.69;;;14.25;73.54
47330;BME280;33060;50.178;7.570;2023-03-19T14:36:41;96835.22;;;13.85;74.00
47330;BME280;33060;50.178;7.570;2023-03-19T14:39:24;96845.44;;;13.39;74.54
47330;BME280;33060;50.178;7.570;2023-03-19T14:41:59;96849.81;;;13.28;76.94
47330;BME280;33060;50.178;7.570;2023-03-19T14:44:35;96845.09;;;13.00;77.08
47330;BME280;33060;50.178;7.570;2023-03-19T14:53:12;96841.03;;;13.49;75.70
47330;BME280;33060;50.178;7.570;2023-03-19T14:55:40;96850.38;;;13.53;74.07
47330;BME280;33060;50.178;7.570;2023-03-19T14:58:10;96849.09;;;13.26;73.05
47330;BME280;33060;50.178;7.570;2023-03-19T15:00:48;96846.00;;;12.89;74.79
47330;BME280;33060;50.178;7.570;2023-03-19T15:03:33;96845.72;;;12.71;76.05
47330;BME280;33060;50.178;7.570;2023-03-19T15:06:04;96849.63;;;12.88;76.55
47330;BME280;33060;50.178;7.570;2023-03-19T15:08:34;96848.97;;;13.28;73.88
47330;BME280;33060;50.178;7.570;2023-03-19T15:16:30;96842.03;;;12.95;73.15
47330;BME280;33060;50.178;7.570;2023-03-19T15:18:59;96843.84;;;12.83;73.76